Time;durP1;ratioP1;P1;durP2;ratioP2;P2;SDS_P1;SDS_P2;PMS_P1;PMS_P2;Temp;Humidity;BMP_temperature;BMP_pressure;BME280_temperature;BME280_humidity;BME280_pressure;Samples;Min_cycle;Max_cycle;Signal;HPM_P1;HPM_P2
2023/06/02 00:01:24;;;;;;;5.23;4.83;;;;;;;-145.94;51.59;77355.03;5115288;28;20598;-70
2023/06/02 00:03:53;;;;;;;5.00;4.90;;;;;;;-145.94;51.40;77361.16;5115247;28;20230;-70
2023/06/02 00:06:20;;;;;;;5.93;5.37;;;;;;;-145.94;51.50;77353.00;5096857;28;20242;-70
2023/06/02 00:08:46;;;;;;;5.80;5.27;;;;;;;-145.94;51.50;77353.00;5115048;28;20201;-70
2023/06/02 00:11:13;;;;;;;7.27;6.87;;;;;;;-145.94;51.84;77353.00;5115027;28;20548;-70
2023/06/02 00:13:40;;;;;;;9.87;7.27;;;;;;;-145.94;50.94;77363.19;5115046;28;20189;-70
2023/06/02 00:16:06;;;;;;;6.37;6.07;;;;;;;-145.94;50.92;77355.03;5115261;28;20189;-70
2023/06/02 00:18:36;;;;;;;7.53;6.97;;;;;;;-145.94;51.11;77365.22;5114808;28;20216;-69
2023/06/02 00:21:09;;;;;;;11.77;7.53;;;;;;;-145.94;51.11;77367.25;5115189;28;20264;-70
2023/06/02 00:23:35;;;;;;;8.00;6.10;;;;;;;-145.94;50.89;77369.31;5115195;28;20180;-70
2023/06/02 00:26:02;;;;;;;6.63;6.23;;;;;;;-145.94;51.25;77361.16;5114807;28;20590;-71
2023/06/02 00:28:29;;;;;;;15.40;5.40;;;;;;;-145.94;51.20;77363.19;5114968;28;20561;-70
2023/06/02 00:30:55;;;;;;;12.70;6.90;;;;;;;-145.94;50.78;77359.09;5114718;28;20193;-70
2023/06/02 00:33:22;;;;;;;5.30;4.93;;;;;;;-145.94;50.83;77365.22;5114937;28;20193;-70
2023/06/02 00:35:48;;;;;;;7.67;5.43;;;;;;;-145.94;50.71;77377.47;5114635;28;20200;-70
2023/06/02 00:38:15;;;;;;;5.80;4.73;;;;;;;-145.94;50.88;77375.41;5096251;28;20232;-70
2023/06/02 00:40:42;;;;;;;14.50;5.53;;;;;;;-145.94;50.84;77379.50;5096478;28;20556;-70
2023/06/02 00:43:09;;;;;;;5.73;5.53;;;;;;;-145.94;50.74;77377.47;5114486;28;20552;-71
2023/06/02 00:45:35;;;;;;;5.43;5.13;;;;;;;-145.94;50.24;77377.47;5114948;28;20569;-70
2023/06/02 00:48:02;;;;;;;5.50;5.10;;;;;;;-145.94;50.60;77385.63;5096070;28;20213;-70
2023/06/02 00:50:31;;;;;;;6.17;5.63;;;;;;;-145.94;50.29;77381.53;5096095;28;20555;-70
2023/06/02 00:52:59;;;;;;;13.90;5.27;;;;;;;-145.94;50.47;77387.66;5114893;28;20199;-70
2023/06/02 00:55:30;;;;;;;6.03;5.53;;;;;;;-145.94;50.46;77377.47;5114199;28;20193;-70
2023/06/02 00:57:58;;;;;;;5.10;4.80;;;;;;;-145.94;50.89;77391.75;5095921;28;20237;-70
2023/06/02 01:00:26;;;;;;;5.30;5.00;;;;;;;-145.94;50.93;77393.78;5114619;28;20213;-70
2023/06/02 01:02:53;;;;;;;10.67;5.33;;;;;;;-145.94;50.88;77403.97;5095929;28;20211;-70
2023/06/02 01:05:20;;;;;;;6.00;5.60;;;;;;;-145.94;50.81;77401.94;5095852;28;20659;-69
2023/06/02 01:07:51;;;;;;;5.73;5.27;;;;;;;-145.94;50.99;77412.13;5115061;28;20189;-69
2023/06/02 01:10:18;;;;;;;5.60;4.77;;;;;;;-145.94;50.72;77408.06;5095761;28;20174;-69
2023/06/02 01:12:48;;;;;;;9.70;5.07;;;;;;;-145.94;50.52;77422.34;5113957;28;20162;-69
2023/06/02 01:15:15;;;;;;;7.13;5.43;;;;;;;-145.94;50.33;77420.28;5114189;28;20181;-69
2023/06/02 01:17:45;;;;;;;6.53;5.50;;;;;;;-145.94;50.45;77436.59;5113819;28;20273;-69
2023/06/02 01:20:15;;;;;;;9.30;5.43;;;;;;;-145.94;50.28;77442.72;5114146;28;20622;-69
2023/06/02 01:22:49;;;;;;;10.63;5.90;;;;;;;-145.94;50.16;77452.91;5114122;28;20185;-69
2023/06/02 01:25:25;;;;;;;6.17;5.70;;;;;;;-145.94;50.33;77448.84;5095827;28;20195;-70
2023/06/02 01:27:53;;;;;;;5.97;4.70;;;;;;;-145.94;50.39;77448.84;5095649;28;20224;-70
2023/06/02 01:30:20;;;;;;;10.40;6.10;;;;;;;-145.94;49.83;77446.81;5114334;28;20177;-70
2023/06/02 01:33:03;;;;;;;5.40;5.03;;;;;;;-145.94;49.79;77442.72;5113747;28;20204;-70
2023/06/02 01:35:34;;;;;;;12.90;6.00;;;;;;;-145.94;49.87;77463.13;5114268;28;20230;-69
2023/06/02 01:38:02;;;;;;;6.27;5.90;;;;;;;-145.94;49.71;77461.09;5113843;28;20201;-69
2023/06/02 01:40:30;;;;;;;7.23;6.20;;;;;;;-145.94;49.50;77467.19;5095354;28;20212;-69
2023/06/02 01:42:57;;;;;;;17.63;6.43;;;;;;;-145.94;49.43;77479.44;5113911;28;20555;-69
2023/06/02 01:45:27;;;;;;;12.73;7.73;;;;;;;-145.94;49.46;77485.56;5095890;28;20220;-69
2023/06/02 01:48:00;;;;;;;7.10;6.50;;;;;;;-145.94;49.81;77479.44;5095664;28;20213;-70
2023/06/02 01:50:27;;;;;;;8.83;6.00;;;;;;;-145.94;49.58;77473.31;5114137;28;20178;-70
2023/06/02 01:52:53;;;;;;;6.60;6.20;;;;;;;-145.94;49.82;77475.34;5113595;28;20193;-70
2023/06/02 01:55:19;;;;;;;9.77;7.00;;;;;;;-145.94;49.65;77471.28;5113846;28;20173;-69
2023/06/02 01:57:46;;;;;;;14.73;6.97;;;;;;;-145.94;49.39;77481.47;5095192;28;20189;-69
2023/06/02 02:00:14;;;;;;;6.67;5.97;;;;;;;-145.94;49.73;77487.59;5113676;28;20213;-69
2023/06/02 02:02:41;;;;;;;7.57;6.67;;;;;;;-145.94;49.52;77483.50;5114432;28;20213;-70
2023/06/02 02:05:07;;;;;;;6.43;5.80;;;;;;;-145.94;49.57;77485.56;5114206;28;20185;-70
2023/06/02 02:07:34;;;;;;;6.63;6.13;;;;;;;-145.94;50.28;77495.75;5113910;28;20246;-70
2023/06/02 02:10:02;;;;;;;11.67;7.00;;;;;;;-145.94;49.82;77489.63;5113973;28;20189;-69
2023/06/02 02:12:29;;;;;;;9.67;7.23;;;;;;;-145.94;49.73;77493.72;5113721;28;20193;-70
2023/06/02 02:15:00;;;;;;;10.87;8.00;;;;;;;-145.94;49.73;77493.72;5095343;28;20197;-70
2023/06/02 02:17:26;;;;;;;16.50;7.33;;;;;;;-145.94;49.77;77495.75;5113925;28;20166;-69
2023/06/02 02:19:55;;;;;;;12.03;7.53;;;;;;;-145.94;49.82;77491.66;5113127;28;20270;-69
2023/06/02 02:22:23;;;;;;;7.60;7.10;;;;;;;-145.94;49.84;77487.59;5113272;28;20185;-70
2023/06/02 02:24:50;;;;;;;8.63;6.80;;;;;;;-145.94;50.04;77487.59;5095009;28;20242;-69
2023/06/02 02:27:17;;;;;;;8.97;6.43;;;;;;;-145.94;50.15;77489.63;5116965;28;20540;-69
2023/06/02 02:29:44;;;;;;;8.30;6.90;;;;;;;-145.94;50.29;77491.66;5099600;28;20258;-69
2023/06/02 02:32:12;;;;;;;8.07;7.23;;;;;;;-145.94;50.00;77487.59;5098774;28;20189;-69
2023/06/02 02:34:38;;;;;;;22.70;7.70;;;;;;;-145.94;50.19;77497.78;5116980;28;20193;-69
2023/06/02 02:37:10;;;;;;;16.47;7.53;;;;;;;-145.94;50.25;77491.66;5098925;28;20305;-69
2023/06/02 02:39:37;;;;;;;7.57;6.60;;;;;;;-145.94;50.26;77495.75;5098534;28;20213;-70
2023/06/02 02:42:04;;;;;;;10.03;6.67;;;;;;;-145.94;50.17;77497.78;5098556;28;20253;-69
2023/06/02 02:44:30;;;;;;;7.50;5.83;;;;;;;-145.94;50.32;77491.66;5098521;28;20189;-69
2023/06/02 02:47:00;;;;;;;7.97;7.17;;;;;;;-145.94;50.24;77497.78;5098507;28;20224;-69
2023/06/02 02:49:27;;;;;;;10.13;7.53;;;;;;;-145.94;49.95;77495.75;5116606;28;20284;-70
2023/06/02 02:51:54;;;;;;;7.90;6.40;;;;;;;-145.94;50.70;77493.72;5098572;28;20293;-69
2023/06/02 02:54:21;;;;;;;6.80;6.27;;;;;;;-145.94;50.10;77493.72;5098503;28;20658;-69
2023/06/02 02:56:47;;;;;;;6.23;6.03;;;;;;;-145.94;50.37;77489.63;5116513;28;20551;-70
2023/06/02 02:59:15;;;;;;;6.93;6.50;;;;;;;-145.94;50.22;77489.63;5116423;28;20248;-70
2023/06/02 03:01:46;;;;;;;8.07;7.00;;;;;;;-145.94;50.39;77495.75;5098165;28;20189;-69
2023/06/02 03:04:21;;;;;;;11.43;6.47;;;;;;;-145.94;50.01;77489.63;5098082;28;20272;-70
2023/06/02 03:06:50;;;;;;;7.60;6.90;;;;;;;-145.94;50.58;77489.63;5098719;28;20286;-70
2023/06/02 03:09:19;;;;;;;10.43;6.37;;;;;;;-145.94;50.26;77487.59;5097943;28;20213;-70
2023/06/02 03:11:46;;;;;;;10.10;5.83;;;;;;;-145.94;50.36;77493.72;5116305;28;20231;-70
2023/06/02 03:14:13;;;;;;;6.50;6.00;;;;;;;-145.94;50.64;77489.63;5097964;28;20201;-70
2023/06/02 03:16:44;;;;;;;6.53;6.03;;;;;;;-145.94;50.38;77497.78;5097870;28;20189;-70
2023/06/02 03:19:14;;;;;;;6.60;6.00;;;;;;;-145.94;50.44;77489.63;5097780;28;20854;-70
2023/06/02 03:21:44;;;;;;;6.73;6.43;;;;;;;-145.94;50.76;77493.72;5097774;28;20185;-70
2023/06/02 03:24:15;;;;;;;6.60;6.20;;;;;;;-145.94;50.61;77491.66;5097771;28;20716;-70
2023/06/02 03:26:44;;;;;;;10.03;6.57;;;;;;;-145.94;50.53;77493.72;5098568;28;20188;-70
2023/06/02 03:29:13;;;;;;;6.83;6.27;;;;;;;-145.94;50.74;77491.66;5097698;28;20216;-70
2023/06/02 03:31:41;;;;;;;7.80;7.20;;;;;;;-145.94;50.71;77495.75;5097671;28;20185;-70
2023/06/02 03:34:09;;;;;;;9.87;8.97;;;;;;;-145.94;50.91;77487.59;5097597;28;20200;-70
2023/06/02 03:36:37;;;;;;;12.07;8.30;;;;;;;-145.94;50.64;77487.59;5097467;28;20203;-69
2023/06/02 03:39:05;;;;;;;11.60;10.63;;;;;;;-145.94;50.60;77487.59;5097343;28;20216;-70
2023/06/02 03:41:34;;;;;;;15.20;12.80;;;;;;;-145.94;50.76;77495.75;5097442;28;20192;-70
2023/06/02 03:44:03;;;;;;;15.37;11.60;;;;;;;-145.94;50.88;77497.78;5097446;28;20616;-69
2023/06/02 03:46:33;;;;;;;15.17;8.93;;;;;;;-145.94;50.73;77499.84;5097349;28;20204;-70
2023/06/02 03:49:00;;;;;;;10.60;9.13;;;;;;;-145.94;50.57;77501.88;5097261;28;20213;-70
2023/06/02 03:51:28;;;;;;;10.93;8.73;;;;;;;-145.94;50.59;77491.66;5097191;28;20193;-70
2023/06/02 03:53:55;;;;;;;10.00;8.87;;;;;;;-145.94;50.48;77495.75;5097193;28;20716;-70
2023/06/02 03:56:23;;;;;;;13.70;8.10;;;;;;;-145.94;50.57;77493.72;5097119;28;20246;-69
2023/06/02 03:58:51;;;;;;;8.53;6.97;;;;;;;-145.94;50.73;77508.00;5097174;28;20260;-69
2023/06/02 04:01:18;;;;;;;8.07;7.23;;;;;;;-145.94;50.69;77508.00;5097487;28;20208;-69
2023/06/02 04:03:46;;;;;;;8.37;7.10;;;;;;;-145.94;50.91;77508.00;5097007;28;20282;-70
2023/06/02 04:06:14;;;;;;;8.80;7.07;;;;;;;-145.94;50.82;77503.91;5096931;28;20224;-70
2023/06/02 04:08:41;;;;;;;7.10;6.57;;;;;;;-145.94;51.15;77503.91;5096762;28;20244;-70
2023/06/02 04:11:08;;;;;;;15.57;8.80;;;;;;;-145.94;50.82;77503.91;5115073;28;20188;-70
2023/06/02 04:13:35;;;;;;;9.60;8.63;;;;;;;-145.94;51.06;77503.91;5096865;28;20189;-70
2023/06/02 04:16:02;;;;;;;12.40;7.83;;;;;;;-145.94;50.69;77499.84;5097043;28;20292;-70
2023/06/02 04:18:31;;;;;;;9.80;7.93;;;;;;;-145.94;51.14;77508.00;5096543;28;20208;-70
2023/06/02 04:20:59;;;;;;;12.57;8.47;;;;;;;-145.94;51.13;77510.03;5096548;28;20209;-69
2023/06/02 04:23:27;;;;;;;13.07;8.00;;;;;;;-145.94;51.15;77510.03;5096611;28;20541;-69
2023/06/02 04:25:53;;;;;;;8.07;7.10;;;;;;;-145.94;51.15;77508.00;5096464;28;20222;-70
2023/06/02 04:28:20;;;;;;;7.93;7.43;;;;;;;-145.94;51.38;77514.09;5096370;28;20308;-70
2023/06/02 04:30:53;;;;;;;7.60;7.00;;;;;;;-145.94;51.13;77516.16;5096364;28;20193;-70
2023/06/02 04:33:21;;;;;;;7.63;7.10;;;;;;;-145.94;50.85;77508.00;5096428;28;20260;-70
2023/06/02 04:35:48;;;;;;;10.60;8.03;;;;;;;-145.94;50.86;77510.03;5096325;28;20651;-70
2023/06/02 04:38:15;;;;;;;13.87;8.40;;;;;;;-145.94;51.06;77510.03;5096119;28;20215;-70
2023/06/02 04:40:42;;;;;;;9.03;8.23;;;;;;;-145.94;50.62;77514.09;5092857;28;20667;-69
2023/06/02 04:43:09;;;;;;;14.00;7.77;;;;;;;-145.94;50.93;77522.25;5096221;28;20275;-70
2023/06/02 04:45:36;;;;;;;7.90;7.00;;;;;;;-145.94;50.67;77526.34;5096151;28;20740;-70
2023/06/02 04:48:03;;;;;;;7.60;6.90;;;;;;;-145.94;50.52;77530.44;5095363;28;20213;-70
2023/06/02 04:50:30;;;;;;;7.00;6.17;;;;;;;-145.94;50.49;77520.22;5114282;28;20215;-70
2023/06/02 04:52:56;;;;;;;7.30;6.60;;;;;;;-145.94;50.59;77518.19;5096061;28;20193;-70
2023/06/02 04:55:23;;;;;;;10.03;6.77;;;;;;;-145.94;51.15;77516.16;5096229;28;20196;-70
2023/06/02 04:57:51;;;;;;;7.23;6.67;;;;;;;-145.94;50.93;77522.25;5095888;28;20193;-69
2023/06/02 05:00:18;;;;;;;8.20;7.00;;;;;;;-145.94;50.95;77530.44;5095977;28;20205;-70
2023/06/02 05:02:45;;;;;;;7.70;7.23;;;;;;;-145.94;51.03;77520.22;5095915;28;20204;-70
2023/06/02 05:05:13;;;;;;;8.90;7.57;;;;;;;-145.94;50.70;77526.34;5095886;28;20251;-70
2023/06/02 05:07:39;;;;;;;7.93;7.23;;;;;;;-145.94;50.75;77524.31;5095738;28;20718;-70
2023/06/02 05:10:07;;;;;;;13.30;6.80;;;;;;;-145.94;50.86;77530.44;5096073;28;20188;-70
2023/06/02 05:12:36;;;;;;;7.20;6.30;;;;;;;-145.94;50.97;77534.50;5095771;28;20284;-69
2023/06/02 05:15:06;;;;;;;6.97;6.30;;;;;;;-145.94;50.88;77532.47;5095733;28;20627;-70
2023/06/02 05:17:33;;;;;;;8.13;6.40;;;;;;;-145.94;51.41;77550.81;5095594;28;20189;-68
2023/06/02 05:20:02;;;;;;;6.83;6.33;;;;;;;-145.94;51.17;77546.75;5095536;28;20219;-70
2023/06/02 05:22:29;;;;;;;12.33;6.97;;;;;;;-145.94;50.94;77561.03;5095643;28;20189;-69
2023/06/02 05:24:56;;;;;;;6.93;6.27;;;;;;;-145.94;50.77;77569.19;5096540;28;20228;-70
2023/06/02 05:27:23;;;;;;;10.23;7.30;;;;;;;-145.94;50.88;77563.06;5113849;28;20184;-69
2023/06/02 05:29:49;;;;;;;8.27;7.47;;;;;;;-145.94;50.90;77567.13;5113746;28;20208;-69
2023/06/02 05:32:16;;;;;;;8.33;6.83;;;;;;;-145.94;50.54;77563.06;5095353;28;20287;-69
2023/06/02 05:34:43;;;;;;;16.73;7.90;;;;;;;-145.94;50.48;77569.19;5096320;28;20298;-70
2023/06/02 05:37:10;;;;;;;13.93;9.20;;;;;;;-145.94;50.25;77558.97;5095366;28;20254;-70
2023/06/02 05:39:37;;;;;;;24.97;9.33;;;;;;;-145.94;50.55;77565.09;5113412;28;20219;-70
2023/06/02 05:42:03;;;;;;;11.67;7.70;;;;;;;-145.94;50.42;77571.22;5095595;28;20192;-70
2023/06/02 05:44:30;;;;;;;10.97;8.20;;;;;;;-145.94;50.35;77558.97;5095398;28;20245;-70
2023/06/02 05:46:57;;;;;;;8.87;7.83;;;;;;;-145.94;50.49;77563.06;5095359;28;20284;-70
2023/06/02 05:49:23;;;;;;;10.50;8.93;;;;;;;-145.94;50.02;77563.06;5113540;28;20697;-69
2023/06/02 05:51:50;;;;;;;10.43;9.23;;;;;;;-145.94;50.33;77556.94;5095559;28;20189;-70
2023/06/02 05:54:18;;;;;;;11.00;8.90;;;;;;;-145.94;50.47;77563.06;5095507;28;20200;-69
2023/06/02 05:56:44;;;;;;;8.87;7.00;;;;;;;-145.94;49.97;77567.13;5095358;28;20196;-69
2023/06/02 05:59:11;;;;;;;9.00;7.67;;;;;;;-145.94;50.17;77565.09;5095690;28;20694;-70
2023/06/02 06:01:38;;;;;;;10.50;8.23;;;;;;;-145.94;50.48;77558.97;5099255;28;20216;-70
2023/06/02 06:04:05;;;;;;;8.70;7.10;;;;;;;-145.94;50.26;77556.94;5117440;28;20197;-70
2023/06/02 06:06:32;;;;;;;12.93;7.90;;;;;;;-145.94;50.31;77544.69;5099284;28;20655;-70
2023/06/02 06:08:58;;;;;;;10.73;7.33;;;;;;;-145.94;50.20;77548.78;5099042;28;20281;-70
2023/06/02 06:11:25;;;;;;;15.70;8.13;;;;;;;-145.94;49.88;77546.75;5099128;28;20564;-70
2023/06/02 06:13:53;;;;;;;9.23;7.40;;;;;;;-145.94;50.37;77542.66;5099655;28;20200;-70
2023/06/02 06:16:20;;;;;;;8.30;7.73;;;;;;;-145.94;50.48;77534.50;5098942;28;20236;-70
2023/06/02 06:18:46;;;;;;;9.00;8.10;;;;;;;-145.94;50.57;77536.53;5099748;28;20246;-69
2023/06/02 06:21:13;;;;;;;7.80;7.13;;;;;;;-145.94;50.32;77536.53;5098868;28;20213;-69
2023/06/02 06:23:40;;;;;;;7.47;6.77;;;;;;;-145.94;50.57;77532.47;5098991;28;20227;-70
2023/06/02 06:26:06;;;;;;;8.73;7.93;;;;;;;-145.94;50.39;77536.53;5098875;28;20197;-69
2023/06/02 06:28:33;;;;;;;9.30;8.40;;;;;;;-145.94;50.24;77528.38;5117151;28;20240;-70
2023/06/02 06:31:00;;;;;;;9.03;7.77;;;;;;;-145.94;50.12;77530.44;5099539;28;20189;-70
2023/06/02 06:33:27;;;;;;;20.40;7.70;;;;;;;-145.94;49.96;77532.47;5117547;28;20221;-69
2023/06/02 06:35:53;;;;;;;13.80;7.97;;;;;;;-145.94;50.29;77536.53;5116967;28;20185;-70
2023/06/02 06:38:20;;;;;;;7.77;7.03;;;;;;;-145.94;49.97;77538.59;5098563;28;20309;-69
2023/06/02 06:40:47;;;;;;;10.67;7.67;;;;;;;-145.94;49.91;77534.50;5116789;28;20211;-70
2023/06/02 06:43:15;;;;;;;7.77;7.17;;;;;;;-145.94;49.66;77534.50;5098638;28;20185;-70
2023/06/02 06:46:01;;;;;;;8.13;7.47;;;;;;;-145.94;49.91;77540.63;5098525;28;20677;-70
2023/06/02 06:48:28;;;;;;;15.17;8.60;;;;;;;-145.94;49.82;77538.59;5116674;28;20236;-70
2023/06/02 06:50:54;;;;;;;9.40;8.23;;;;;;;-145.94;49.95;77540.63;5117198;28;20181;-70
2023/06/02 06:53:21;;;;;;;17.20;8.57;;;;;;;-145.94;49.46;77538.59;5116614;28;20189;-70
2023/06/02 06:55:47;;;;;;;11.30;7.60;;;;;;;-145.94;49.58;77534.50;5116606;28;20193;-70
2023/06/02 06:58:14;;;;;;;8.63;8.10;;;;;;;-145.94;49.61;77536.53;5116932;28;20571;-70
2023/06/02 07:00:40;;;;;;;10.47;8.27;;;;;;;-145.94;50.06;77538.59;5116563;28;20223;-69
2023/06/02 07:03:07;;;;;;;7.00;6.70;;;;;;;-145.94;50.10;77526.34;5116947;28;20561;-70
2023/06/02 07:05:34;;;;;;;7.47;6.83;;;;;;;-145.94;49.55;77520.22;5116334;28;20205;-71
2023/06/02 07:08:00;;;;;;;7.90;7.13;;;;;;;-145.94;50.08;77516.16;5116347;28;20613;-71
2023/06/02 07:10:27;;;;;;;10.40;7.63;;;;;;;-145.94;49.70;77522.25;5116397;28;20193;-70
2023/06/02 07:12:53;;;;;;;7.93;7.33;;;;;;;-145.94;49.60;77516.16;5115689;28;20227;-69
2023/06/02 07:15:20;;;;;;;8.23;7.40;;;;;;;-145.94;49.59;77514.09;5116249;28;20193;-69
2023/06/02 07:17:46;;;;;;;7.83;7.27;;;;;;;-145.94;49.15;77512.06;5116111;28;20245;-69
2023/06/02 07:20:13;;;;;;;7.47;6.80;;;;;;;-145.94;49.21;77499.84;5116385;28;20262;-70
2023/06/02 07:22:40;;;;;;;8.43;7.77;;;;;;;-145.94;49.46;77510.03;5116068;28;20185;-70
2023/06/02 07:25:07;;;;;;;8.90;7.87;;;;;;;-145.94;49.39;77512.06;5116841;28;20189;-70
2023/06/02 07:27:34;;;;;;;7.43;6.83;;;;;;;-145.94;49.09;77505.94;5116015;28;20193;-70
2023/06/02 07:30:00;;;;;;;8.57;7.70;;;;;;;-145.94;49.04;77497.78;5115950;28;20177;-70
2023/06/02 07:32:27;;;;;;;7.20;6.77;;;;;;;-145.94;49.24;77487.59;5116156;28;20193;-70
2023/06/02 07:34:53;;;;;;;7.03;6.63;;;;;;;-145.94;49.46;77483.50;5115855;28;20182;-70
2023/06/02 07:37:20;;;;;;;8.53;6.53;;;;;;;-145.94;49.76;77479.44;5116188;28;20212;-70
2023/06/02 07:39:47;;;;;;;10.03;7.50;;;;;;;-145.94;49.03;77477.41;5115705;28;20209;-69
2023/06/02 07:42:13;;;;;;;7.80;7.00;;;;;;;-145.94;49.21;77471.28;5116109;28;20254;-70
2023/06/02 07:44:40;;;;;;;9.73;7.20;;;;;;;-145.94;48.73;77479.44;5116151;28;20231;-69
2023/06/02 07:47:07;;;;;;;7.33;6.73;;;;;;;-145.94;48.78;77481.47;5116178;28;20196;-69
2023/06/02 07:49:35;;;;;;;8.07;6.60;;;;;;;-145.94;48.60;77477.41;5115533;28;20219;-69
2023/06/02 07:52:02;;;;;;;7.67;7.10;;;;;;;-145.94;48.84;77469.25;5115823;28;20273;-70
2023/06/02 07:54:29;;;;;;;7.87;7.00;;;;;;;-145.94;49.00;77459.03;5115365;28;20193;-70
2023/06/02 07:56:56;;;;;;;7.53;7.00;;;;;;;-145.94;49.55;77459.03;5115714;28;20185;-69
2023/06/02 07:59:23;;;;;;;7.97;7.33;;;;;;;-145.94;49.49;77450.88;5115251;28;20205;-70
2023/06/02 08:01:50;;;;;;;11.07;6.53;;;;;;;-145.94;48.84;77442.72;5115549;28;20270;-70
2023/06/02 08:04:16;;;;;;;9.70;6.43;;;;;;;-145.94;48.71;77440.69;5115240;28;20185;-70
2023/06/02 08:06:43;;;;;;;13.37;7.00;;;;;;;-145.94;48.46;77436.59;5115195;28;20196;-69
2023/06/02 08:09:09;;;;;;;7.67;6.07;;;;;;;-145.94;48.14;77424.38;5115203;28;20215;-70
2023/06/02 08:11:36;;;;;;;6.93;6.27;;;;;;;-145.94;48.59;77420.28;5115124;28;20238;-70
2023/06/02 08:14:03;;;;;;;9.07;6.83;;;;;;;-145.94;48.26;77414.16;5115357;28;20189;-70
2023/06/02 08:16:29;;;;;;;7.53;6.83;;;;;;;-145.94;48.16;77414.16;5115367;28;20570;-69
2023/06/02 08:19:10;;;;;;;6.70;6.07;;;;;;;-145.94;48.55;77406.00;5115090;28;20574;-70
2023/06/02 08:21:39;;;;;;;8.70;7.83;;;;;;;-145.94;49.00;77410.09;5114912;28;20240;-70
2023/06/02 08:24:07;;;;;;;12.00;6.80;;;;;;;-145.94;48.30;77403.97;5114106;28;20182;-69
2023/06/02 08:26:34;;;;;;;6.47;6.13;;;;;;;-145.94;47.50;77395.81;5114833;28;20185;-70
2023/06/02 08:29:00;;;;;;;6.93;5.90;;;;;;;-145.94;47.88;77397.84;5114901;28;20217;-70
2023/06/02 08:31:26;;;;;;;6.23;5.60;;;;;;;-145.94;48.01;77391.75;5114786;28;20181;-70
2023/06/02 08:33:53;;;;;;;10.97;5.97;;;;;;;-145.94;47.98;77375.41;5114669;28;20199;-69
2023/06/02 08:36:20;;;;;;;5.80;5.60;;;;;;;-145.94;47.61;77363.19;5114920;28;20571;-70
2023/06/02 08:38:47;;;;;;;6.33;5.80;;;;;;;-145.94;48.02;77353.00;5114913;28;20204;-69
2023/06/02 08:41:15;;;;;;;6.33;5.80;;;;;;;-145.94;47.62;77332.59;5114761;28;20208;-69
2023/06/02 08:43:41;;;;;;;9.07;6.17;;;;;;;-145.94;47.21;77310.16;5114508;28;20186;-69
2023/06/02 08:46:14;;;;;;;9.77;5.67;;;;;;;-145.94;47.01;77297.94;5114412;28;20651;-70
2023/06/02 08:48:47;;;;;;;8.03;5.13;;;;;;;-145.94;47.33;77297.94;5114304;28;20295;-69
2023/06/02 08:51:19;;;;;;;5.73;5.27;;;;;;;-145.94;46.60;77291.81;5114690;28;20176;-69
2023/06/02 08:53:46;;;;;;;5.33;4.93;;;;;;;-145.94;47.07;77279.56;5114637;28;20185;-69
2023/06/02 08:56:14;;;;;;;5.83;5.33;;;;;;;-145.94;47.48;77287.72;5114322;28;20195;-69
2023/06/02 08:58:45;;;;;;;5.43;4.90;;;;;;;-145.94;47.19;77281.59;5114179;28;20296;-70
2023/06/02 09:01:12;;;;;;;5.60;4.77;;;;;;;-145.94;47.59;77275.50;5114334;28;20196;-70
2023/06/02 09:03:38;;;;;;;7.13;5.27;;;;;;;-145.94;47.30;77265.28;5114211;28;20181;-70
2023/06/02 09:06:19;;;;;;;5.40;5.03;;;;;;;-145.94;47.26;77257.13;5114158;28;20256;-69
2023/06/02 09:09:01;;;;;;;5.90;4.57;;;;;;;-145.94;47.79;77240.81;5114170;28;20266;-70
2023/06/02 09:11:29;;;;;;;10.80;5.57;;;;;;;-145.94;47.15;77236.75;5114332;28;20176;-70
2023/06/02 09:13:57;;;;;;;5.07;4.77;;;;;;;-145.94;46.79;77230.63;5113984;28;20182;-70
2023/06/02 09:16:36;;;;;;;9.53;5.20;;;;;;;-145.94;46.50;77238.78;5113955;28;20185;-70
2023/06/02 09:19:03;;;;;;;5.37;4.83;;;;;;;-145.94;46.74;77230.63;5114000;28;20201;-70
2023/06/02 09:21:33;;;;;;;5.73;5.33;;;;;;;-145.94;46.56;77234.69;5113863;28;20201;-70
2023/06/02 09:24:02;;;;;;;7.83;5.00;;;;;;;-145.94;46.43;77228.59;5114232;28;20173;-70
2023/06/02 09:26:51;;;;;;;9.20;4.93;;;;;;;-145.94;47.45;77238.78;5114386;28;20180;-69
2023/06/02 09:29:18;;;;;;;6.17;5.07;;;;;;;-145.94;47.44;77244.91;5113900;28;20219;-70
2023/06/02 09:31:55;;;;;;;7.43;4.67;;;;;;;-145.94;48.22;77255.09;5113782;28;20187;-70
2023/06/02 09:34:24;;;;;;;11.83;4.90;;;;;;;-145.94;48.26;77253.06;5114080;28;20301;-70
2023/06/02 09:36:52;;;;;;;6.70;4.93;;;;;;;-145.94;47.99;77236.75;5114042;28;20647;-70
2023/06/02 09:39:33;;;;;;;11.77;5.23;;;;;;;-145.94;48.66;77232.66;5113569;28;20205;-70
2023/06/02 09:42:00;;;;;;;5.90;5.37;;;;;;;-145.94;48.24;77228.59;5113532;28;20240;-70
2023/06/02 09:44:27;;;;;;;5.03;4.63;;;;;;;-145.94;47.95;77222.47;5113646;28;20185;-70
2023/06/02 09:46:53;;;;;;;6.33;5.13;;;;;;;-145.94;48.17;77218.38;5113529;28;20242;-70
2023/06/02 09:49:20;;;;;;;8.23;5.13;;;;;;;-145.94;48.14;77212.28;5114027;28;20201;-70
2023/06/02 09:51:47;;;;;;;5.60;4.97;;;;;;;-145.94;48.20;77214.31;5113699;28;20647;-71
2023/06/02 09:54:13;;;;;;;8.47;5.50;;;;;;;-145.94;47.96;77216.34;5113597;28;20258;-70
2023/06/02 09:56:40;;;;;;;7.07;5.90;;;;;;;-145.94;47.92;77208.19;5113477;28;20181;-69
2023/06/02 09:59:07;;;;;;;6.10;5.63;;;;;;;-145.94;48.13;77189.84;5113504;28;20219;-70
2023/06/02 10:01:35;;;;;;;6.33;4.87;;;;;;;-145.94;48.61;77195.97;5113705;28;20205;-70
2023/06/02 10:04:04;;;;;;;7.17;5.63;;;;;;;-145.94;48.44;77189.84;5113496;28;20196;-70
2023/06/02 10:06:40;;;;;;;5.47;4.97;;;;;;;-145.94;48.11;77177.59;5113485;28;20189;-70
2023/06/02 10:09:21;;;;;;;9.27;5.57;;;;;;;-145.94;48.48;77163.31;5113851;28;20219;-70
2023/06/02 10:12:11;;;;;;;6.73;5.10;;;;;;;-145.94;48.27;77153.13;5113658;28;20223;-70
2023/06/02 10:14:58;;;;;;;6.20;5.50;;;;;;;-145.94;48.10;77136.81;5114019;28;20173;-70
2023/06/02 10:17:57;;;;;;;7.87;5.23;;;;;;;-145.94;47.66;77136.81;5114039;28;20689;-70
2023/06/02 10:20:26;;;;;;;5.70;5.17;;;;;;;-145.94;47.68;77140.91;5072504;28;20197;-69
2023/06/02 10:23:15;;;;;;;14.73;6.03;;;;;;;-145.94;47.78;77144.97;5113314;28;20193;-69
2023/06/02 10:26:00;;;;;;;11.70;5.37;;;;;;;-145.94;47.65;77128.66;5113855;28;20169;-70
2023/06/02 10:28:29;;;;;;;6.87;5.57;;;;;;;-145.94;47.92;77134.78;5113397;28;20694;-69
2023/06/02 10:31:07;;;;;;;5.40;5.23;;;;;;;-145.94;47.79;77124.56;5113471;28;20190;-70
2023/06/02 10:33:41;;;;;;;8.47;6.23;;;;;;;-145.94;47.22;77128.66;5113491;28;20230;-70
2023/06/02 10:36:07;;;;;;;15.77;6.27;;;;;;;-145.94;47.77;77130.69;5113428;28;20592;-70
2023/06/02 10:38:38;;;;;;;7.40;6.07;;;;;;;-145.94;47.77;77134.78;5113556;28;20229;-70
2023/06/02 10:41:05;;;;;;;11.27;6.07;;;;;;;-145.94;48.23;77130.69;5113464;28;20609;-70
2023/06/02 10:43:33;;;;;;;10.83;6.37;;;;;;;-145.94;48.10;77110.31;5113662;28;20185;-70
2023/06/02 10:46:25;;;;;;;6.00;5.50;;;;;;;-145.94;48.01;77104.19;5113288;28;20185;-70
2023/06/02 10:48:52;;;;;;;7.10;6.30;;;;;;;-145.94;47.45;77094.00;5112463;28;20249;-70
2023/06/02 10:51:18;;;;;;;6.90;6.23;;;;;;;-145.94;47.74;77081.75;5116713;28;20674;-70
2023/06/02 10:54:04;;;;;;;6.70;5.13;;;;;;;-145.94;47.86;77063.41;5116953;28;20185;-70
2023/06/02 10:56:40;;;;;;;6.57;5.40;;;;;;;-145.94;47.49;77053.19;5117021;28;20170;-70
2023/06/02 10:59:08;;;;;;;6.03;5.57;;;;;;;-145.94;47.27;77063.41;5116839;28;20682;-70
2023/06/02 11:01:51;;;;;;;6.00;5.50;;;;;;;-145.94;47.15;77063.41;5116587;28;20610;-69
2023/06/02 11:04:28;;;;;;;6.43;5.90;;;;;;;-145.94;47.40;77055.25;5117142;28;20193;-70
2023/06/02 11:07:23;;;;;;;8.77;6.00;;;;;;;-145.94;47.59;77071.56;5116907;28;20174;-70
2023/06/02 11:09:55;;;;;;;15.27;5.93;;;;;;;-145.94;47.22;77045.03;5116469;28;20244;-69
2023/06/02 11:13:02;;;;;;;8.47;6.57;;;;;;;-145.94;47.69;77051.16;5116888;28;20179;-70
2023/06/02 11:15:28;;;;;;;13.13;6.27;;;;;;;-145.94;47.64;77045.03;5116595;28;20570;-71
2023/06/02 11:17:55;;;;;;;6.87;6.10;;;;;;;-145.94;47.48;77034.84;5116495;28;20619;-69
2023/06/02 11:20:32;;;;;;;5.50;5.40;;;;;;;-145.94;47.68;77040.97;5116435;28;20181;-70
2023/06/02 11:23:03;;;;;;;9.10;6.63;;;;;;;-145.94;47.75;77040.97;5116412;28;20196;-70